sensor_id;sensor_type;location;lat;lon;timestamp;P1;durP1;ratioP1;P2;durP2;ratioP2
8213;SDS011;4148;47.974;7.824;2024-03-23T00:55:53;5.03;;;2.73;;
8213;SDS011;4148;47.974;7.824;2024-03-23T00:58:20;2.63;;;2.13;;
8213;SDS011;4148;47.974;7.824;2024-03-23T01:00:46;3.03;;;2.67;;
8213;SDS011;4148;47.974;7.824;2024-03-23T01:03:13;3.90;;;2.00;;
8213;SDS011;4148;47.974;7.824;2024-03-23T01:05:39;3.43;;;2.57;;
8213;SDS011;4148;47.974;7.824;2024-03-23T01:08:06;5.07;;;2.13;;
8213;SDS011;4148;47.974;7.824;2024-03-23T01:10:34;6.37;;;2.70;;
8213;SDS011;4148;47.974;7.824;2024-03-23T01:13:01;4.10;;;2.60;;
8213;SDS011;4148;47.974;7.824;2024-03-23T01:15:27;3.43;;;2.30;;
8213;SDS011;4148;47.974;7.824;2024-03-23T01:17:54;2.83;;;2.30;;
8213;SDS011;4148;47.974;7.824;2024-03-23T01:20:20;4.83;;;2.83;;
8213;SDS011;4148;47.974;7.824;2024-03-23T01:22:47;7.43;;;2.83;;
8213;SDS011;4148;47.974;7.824;2024-03-23T01:25:13;4.23;;;2.50;;
8213;SDS011;4148;47.974;7.824;2024-03-23T01:27:41;5.07;;;2.63;;
8213;SDS011;4148;47.974;7.824;2024-03-23T01:30:07;4.03;;;2.87;;
8213;SDS011;4148;47.974;7.824;2024-03-23T01:32:34;4.40;;;2.70;;
8213;SDS011;4148;47.974;7.824;2024-03-23T01:35:00;6.90;;;2.80;;
8213;SDS011;4148;47.974;7.824;2024-03-23T01:37:27;3.83;;;2.73;;
8213;SDS011;4148;47.974;7.824;2024-03-23T01:39:53;3.40;;;2.70;;
8213;SDS011;4148;47.974;7.824;2024-03-23T01:42:20;3.10;;;2.50;;
8213;SDS011;4148;47.974;7.824;2024-03-23T01:44:47;3.77;;;2.80;;
8213;SDS011;4148;47.974;7.824;2024-03-23T01:47:14;4.97;;;2.60;;
8213;SDS011;4148;47.974;7.824;2024-03-23T01:49:40;6.10;;;2.80;;
8213;SDS011;4148;47.974;7.824;2024-03-23T01:52:07;3.27;;;2.77;;
8213;SDS011;4148;47.974;7.824;2024-03-23T01:54:33;5.43;;;2.70;;
8213;SDS011;4148;47.974;7.824;2024-03-23T01:57:01;6.27;;;3.23;;
8213;SDS011;4148;47.974;7.824;2024-03-23T01:59:27;6.67;;;3.77;;
8213;SDS011;4148;47.974;7.824;2024-03-23T02:01:55;3.00;;;2.60;;
8213;SDS011;4148;47.974;7.824;2024-03-23T02:04:21;7.80;;;4.60;;
8213;SDS011;4148;47.974;7.824;2024-03-23T02:06:48;3.30;;;2.67;;
8213;SDS011;4148;47.974;7.824;2024-03-23T02:09:14;5.00;;;2.97;;
8213;SDS011;4148;47.974;7.824;2024-03-23T02:11:41;3.70;;;2.80;;
8213;SDS011;4148;47.974;7.824;2024-03-23T02:14:07;6.00;;;3.23;;
8213;SDS011;4148;47.974;7.824;2024-03-23T02:16:34;3.33;;;2.80;;
8213;SDS011;4148;47.974;7.824;2024-03-23T02:19:02;3.93;;;3.23;;
8213;SDS011;4148;47.974;7.824;2024-03-23T02:21:29;4.53;;;2.97;;
8213;SDS011;4148;47.974;7.824;2024-03-23T02:23:59;2.80;;;2.50;;
8213;SDS011;4148;47.974;7.824;2024-03-23T02:26:26;6.30;;;2.90;;
8213;SDS011;4148;47.974;7.824;2024-03-23T02:28:52;5.70;;;3.10;;
8213;SDS011;4148;47.974;7.824;2024-03-23T02:31:19;5.30;;;3.07;;
8213;SDS011;4148;47.974;7.824;2024-03-23T02:33:45;5.37;;;3.27;;
8213;SDS011;4148;47.974;7.824;2024-03-23T02:36:11;5.00;;;3.13;;
8213;SDS011;4148;47.974;7.824;2024-03-23T02:38:37;6.80;;;3.37;;
8213;SDS011;4148;47.974;7.824;2024-03-23T02:41:06;3.90;;;2.97;;
8213;SDS011;4148;47.974;7.824;2024-03-23T02:43:32;4.03;;;2.80;;
8213;SDS011;4148;47.974;7.824;2024-03-23T02:45:59;3.97;;;3.00;;
8213;SDS011;4148;47.974;7.824;2024-03-23T02:48:26;4.27;;;3.00;;
8213;SDS011;4148;47.974;7.824;2024-03-23T02:50:53;5.03;;;2.90;;
8213;SDS011;4148;47.974;7.824;2024-03-23T02:53:19;4.37;;;2.80;;
8213;SDS011;4148;47.974;7.824;2024-03-23T02:55:46;3.93;;;2.70;;
8213;SDS011;4148;47.974;7.824;2024-03-23T02:58:13;6.20;;;2.87;;
8213;SDS011;4148;47.974;7.824;2024-03-23T03:00:40;3.90;;;3.20;;
8213;SDS011;4148;47.974;7.824;2024-03-23T03:03:06;6.33;;;3.60;;
8213;SDS011;4148;47.974;7.824;2024-03-23T03:05:34;7.27;;;2.97;;
8213;SDS011;4148;47.974;7.824;2024-03-23T03:08:00;5.60;;;3.13;;
8213;SDS011;4148;47.974;7.824;2024-03-23T03:10:27;3.73;;;2.60;;
8213;SDS011;4148;47.974;7.824;2024-03-23T03:12:53;5.37;;;3.07;;
8213;SDS011;4148;47.974;7.824;2024-03-23T03:15:21;6.60;;;3.50;;
8213;SDS011;4148;47.974;7.824;2024-03-23T03:17:47;5.50;;;2.90;;
8213;SDS011;4148;47.974;7.824;2024-03-23T03:20:14;3.60;;;2.77;;
8213;SDS011;4148;47.974;7.824;2024-03-23T03:22:41;4.10;;;3.30;;
8213;SDS011;4148;47.974;7.824;2024-03-23T03:25:08;5.33;;;3.50;;
8213;SDS011;4148;47.974;7.824;2024-03-23T03:27:34;5.47;;;3.40;;
8213;SDS011;4148;47.974;7.824;2024-03-23T03:30:01;7.60;;;3.60;;
8213;SDS011;4148;47.974;7.824;2024-03-23T03:32:29;4.07;;;3.17;;
8213;SDS011;4148;47.974;7.824;2024-03-23T03:34:57;4.50;;;3.20;;
8213;SDS011;4148;47.974;7.824;2024-03-23T03:37:22;3.97;;;3.27;;
8213;SDS011;4148;47.974;7.824;2024-03-23T03:39:50;3.70;;;2.93;;
8213;SDS011;4148;47.974;7.824;2024-03-23T03:42:16;4.30;;;3.00;;
8213;SDS011;4148;47.974;7.824;2024-03-23T03:44:43;5.00;;;3.00;;
8213;SDS011;4148;47.974;7.824;2024-03-23T03:47:09;5.17;;;3.20;;
8213;SDS011;4148;47.974;7.824;2024-03-23T03:49:37;4.50;;;2.97;;
8213;SDS011;4148;47.974;7.824;2024-03-23T03:52:03;5.27;;;3.40;;
8213;SDS011;4148;47.974;7.824;2024-03-23T03:54:31;3.20;;;2.90;;
8213;SDS011;4148;47.974;7.824;2024-03-23T03:56:58;4.47;;;3.30;;
8213;SDS011;4148;47.974;7.824;2024-03-23T03:59:25;5.07;;;3.50;;
8213;SDS011;4148;47.974;7.824;2024-03-23T04:01:51;4.13;;;3.43;;
8213;SDS011;4148;47.974;7.824;2024-03-23T04:04:18;7.73;;;3.60;;
8213;SDS011;4148;47.974;7.824;2024-03-23T04:06:47;4.20;;;3.80;;
8213;SDS011;4148;47.974;7.824;2024-03-23T04:09:14;5.63;;;3.57;;
8213;SDS011;4148;47.974;7.824;2024-03-23T04:11:40;6.23;;;3.50;;
8213;SDS011;4148;47.974;7.824;2024-03-23T04:14:07;6.80;;;3.50;;
8213;SDS011;4148;47.974;7.824;2024-03-23T04:16:33;5.90;;;3.90;;
8213;SDS011;4148;47.974;7.824;2024-03-23T04:19:01;6.67;;;3.87;;
8213;SDS011;4148;47.974;7.824;2024-03-23T04:21:27;5.73;;;3.83;;
8213;SDS011;4148;47.974;7.824;2024-03-23T04:23:55;4.33;;;3.27;;
8213;SDS011;4148;47.974;7.824;2024-03-23T04:26:21;6.23;;;3.80;;
8213;SDS011;4148;47.974;7.824;2024-03-23T04:28:48;6.73;;;4.13;;
8213;SDS011;4148;47.974;7.824;2024-03-23T04:31:14;4.83;;;3.70;;
8213;SDS011;4148;47.974;7.824;2024-03-23T04:33:41;4.60;;;3.43;;
8213;SDS011;4148;47.974;7.824;2024-03-23T04:36:07;5.03;;;3.90;;
8213;SDS011;4148;47.974;7.824;2024-03-23T04:38:35;5.93;;;3.47;;
8213;SDS011;4148;47.974;7.824;2024-03-23T04:41:03;7.00;;;4.50;;
8213;SDS011;4148;47.974;7.824;2024-03-23T04:43:30;4.43;;;3.57;;
8213;SDS011;4148;47.974;7.824;2024-03-23T04:45:57;5.13;;;4.10;;
8213;SDS011;4148;47.974;7.824;2024-03-23T04:48:24;5.47;;;4.30;;
8213;SDS011;4148;47.974;7.824;2024-03-23T04:50:54;6.83;;;4.10;;
8213;SDS011;4148;47.974;7.824;2024-03-23T04:53:22;5.60;;;3.97;;
8213;SDS011;4148;47.974;7.824;2024-03-23T04:55:53;6.33;;;4.40;;
8213;SDS011;4148;47.974;7.824;2024-03-23T04:58:22;5.70;;;4.40;;
8213;SDS011;4148;47.974;7.824;2024-03-23T05:00:49;8.03;;;4.77;;
8213;SDS011;4148;47.974;7.824;2024-03-23T05:03:20;6.17;;;4.30;;
8213;SDS011;4148;47.974;7.824;2024-03-23T05:05:47;7.00;;;4.53;;
8213;SDS011;4148;47.974;7.824;2024-03-23T05:08:13;8.03;;;4.70;;
8213;SDS011;4148;47.974;7.824;2024-03-23T05:10:41;4.83;;;4.33;;
8213;SDS011;4148;47.974;7.824;2024-03-23T05:13:07;8.27;;;5.70;;
8213;SDS011;4148;47.974;7.824;2024-03-23T05:15:35;6.60;;;5.20;;
8213;SDS011;4148;47.974;7.824;2024-03-23T05:18:01;6.60;;;5.20;;
8213;SDS011;4148;47.974;7.824;2024-03-23T05:20:29;7.27;;;4.77;;
8213;SDS011;4148;47.974;7.824;2024-03-23T05:22:55;5.50;;;4.43;;
8213;SDS011;4148;47.974;7.824;2024-03-23T05:25:22;7.50;;;5.17;;
8213;SDS011;4148;47.974;7.824;2024-03-23T05:27:48;7.07;;;4.97;;
8213;SDS011;4148;47.974;7.824;2024-03-23T05:30:15;5.80;;;4.70;;
8213;SDS011;4148;47.974;7.824;2024-03-23T05:32:42;7.67;;;5.33;;
8213;SDS011;4148;47.974;7.824;2024-03-23T05:35:10;6.20;;;5.20;;
8213;SDS011;4148;47.974;7.824;2024-03-23T05:37:37;7.33;;;5.03;;
8213;SDS011;4148;47.974;7.824;2024-03-23T05:40:04;5.83;;;4.60;;
8213;SDS011;4148;47.974;7.824;2024-03-23T05:42:30;9.57;;;6.10;;
8213;SDS011;4148;47.974;7.824;2024-03-23T05:44:57;7.73;;;6.30;;
8213;SDS011;4148;47.974;7.824;2024-03-23T05:47:23;8.47;;;5.40;;
8213;SDS011;4148;47.974;7.824;2024-03-23T05:49:52;7.20;;;4.70;;
8213;SDS011;4148;47.974;7.824;2024-03-23T05:52:17;6.07;;;5.33;;
8213;SDS011;4148;47.974;7.824;2024-03-23T05:54:46;5.80;;;5.20;;
8213;SDS011;4148;47.974;7.824;2024-03-23T05:57:12;9.10;;;4.80;;
8213;SDS011;4148;47.974;7.824;2024-03-23T05:59:39;8.67;;;5.30;;
8213;SDS011;4148;47.974;7.824;2024-03-23T06:02:05;7.67;;;4.80;;
8213;SDS011;4148;47.974;7.824;2024-03-23T06:04:32;6.93;;;5.13;;
8213;SDS011;4148;47.974;7.824;2024-03-23T06:06:59;6.27;;;5.20;;
8213;SDS011;4148;47.974;7.824;2024-03-23T06:09:27;7.97;;;4.70;;
8213;SDS011;4148;47.974;7.824;2024-03-23T06:11:53;6.07;;;4.80;;
8213;SDS011;4148;47.974;7.824;2024-03-23T06:14:19;4.90;;;3.77;;
8213;SDS011;4148;47.974;7.824;2024-03-23T06:16:46;4.03;;;2.83;;
8213;SDS011;4148;47.974;7.824;2024-03-23T06:19:13;4.03;;;2.40;;
8213;SDS011;4148;47.974;7.824;2024-03-23T06:21:42;4.13;;;2.67;;
8213;SDS011;4148;47.974;7.824;2024-03-23T06:24:11;3.10;;;2.17;;
8213;SDS011;4148;47.974;7.824;2024-03-23T06:26:37;6.07;;;2.40;;
8213;SDS011;4148;47.974;7.824;2024-03-23T06:29:04;2.90;;;2.00;;
8213;SDS011;4148;47.974;7.824;2024-03-23T06:31:30;2.33;;;1.90;;
8213;SDS011;4148;47.974;7.824;2024-03-23T06:33:57;1.70;;;1.27;;
8213;SDS011;4148;47.974;7.824;2024-03-23T06:36:23;1.87;;;0.90;;
8213;SDS011;4148;47.974;7.824;2024-03-23T06:38:50;2.20;;;0.90;;
8213;SDS011;4148;47.974;7.824;2024-03-23T06:41:18;1.80;;;1.00;;
8213;SDS011;4148;47.974;7.824;2024-03-23T06:43:45;2.10;;;1.27;;
8213;SDS011;4148;47.974;7.824;2024-03-23T06:46:11;3.03;;;0.87;;
8213;SDS011;4148;47.974;7.824;2024-03-23T06:48:38;1.30;;;0.70;;
8213;SDS011;4148;47.974;7.824;2024-03-23T06:51:04;1.10;;;0.60;;
8213;SDS011;4148;47.974;7.824;2024-03-23T06:53:31;1.37;;;0.60;;
8213;SDS011;4148;47.974;7.824;2024-03-23T06:55:58;3.80;;;0.90;;
8213;SDS011;4148;47.974;7.824;2024-03-23T06:58:27;1.40;;;0.80;;
8213;SDS011;4148;47.974;7.824;2024-03-23T07:00:53;1.67;;;0.80;;
8213;SDS011;4148;47.974;7.824;2024-03-23T07:03:20;1.50;;;1.00;;
8213;SDS011;4148;47.974;7.824;2024-03-23T07:05:46;1.20;;;0.60;;
8213;SDS011;4148;47.974;7.824;2024-03-23T07:08:13;1.60;;;0.80;;
8213;SDS011;4148;47.974;7.824;2024-03-23T07:10:46;1.20;;;0.60;;
8213;SDS011;4148;47.974;7.824;2024-03-23T07:13:13;1.20;;;0.60;;
8213;SDS011;4148;47.974;7.824;2024-03-23T07:15:40;1.40;;;0.60;;
8213;SDS011;4148;47.974;7.824;2024-03-23T07:18:07;1.20;;;0.60;;
8213;SDS011;4148;47.974;7.824;2024-03-23T07:20:33;1.10;;;0.50;;
8213;SDS011;4148;47.974;7.824;2024-03-23T07:23:00;1.50;;;0.80;;
8213;SDS011;4148;47.974;7.824;2024-03-23T07:25:26;1.43;;;0.80;;
8213;SDS011;4148;47.974;7.824;2024-03-23T07:27:54;1.10;;;0.60;;
8213;SDS011;4148;47.974;7.824;2024-03-23T07:30:20;1.20;;;0.60;;
8213;SDS011;4148;47.974;7.824;2024-03-23T07:32:48;1.10;;;0.60;;
8213;SDS011;4148;47.974;7.824;2024-03-23T07:35:14;1.77;;;0.70;;
8213;SDS011;4148;47.974;7.824;2024-03-23T07:37:41;1.97;;;0.60;;
8213;SDS011;4148;47.974;7.824;2024-03-23T07:40:08;1.20;;;0.70;;
8213;SDS011;4148;47.974;7.824;2024-03-23T07:42:37;1.47;;;0.70;;
8213;SDS011;4148;47.974;7.824;2024-03-23T07:45:03;1.43;;;0.70;;
8213;SDS011;4148;47.974;7.824;2024-03-23T07:47:30;2.33;;;0.80;;
8213;SDS011;4148;47.974;7.824;2024-03-23T07:49:58;1.60;;;0.60;;
8213;SDS011;4148;47.974;7.824;2024-03-23T07:52:27;2.47;;;0.80;;
8213;SDS011;4148;47.974;7.824;2024-03-23T07:54:54;1.30;;;0.70;;
8213;SDS011;4148;47.974;7.824;2024-03-23T07:57:20;1.47;;;0.80;;
8213;SDS011;4148;47.974;7.824;2024-03-23T07:59:47;2.03;;;0.80;;
8213;SDS011;4148;47.974;7.824;2024-03-23T08:02:13;2.60;;;0.70;;
8213;SDS011;4148;47.974;7.824;2024-03-23T08:04:40;1.57;;;0.77;;
8213;SDS011;4148;47.974;7.824;2024-03-23T08:07:08;1.60;;;0.90;;
8213;SDS011;4148;47.974;7.824;2024-03-23T08:09:34;2.87;;;1.10;;
8213;SDS011;4148;47.974;7.824;2024-03-23T08:12:01;1.40;;;0.80;;
8213;SDS011;4148;47.974;7.824;2024-03-23T08:14:27;1.93;;;1.00;;
8213;SDS011;4148;47.974;7.824;2024-03-23T08:16:54;1.67;;;1.10;;
8213;SDS011;4148;47.974;7.824;2024-03-23T08:19:20;1.80;;;0.93;;
8213;SDS011;4148;47.974;7.824;2024-03-23T08:21:47;2.00;;;1.40;;
8213;SDS011;4148;47.974;7.824;2024-03-23T08:24:15;3.20;;;1.33;;
8213;SDS011;4148;47.974;7.824;2024-03-23T08:26:42;5.37;;;1.40;;
8213;SDS011;4148;47.974;7.824;2024-03-23T08:29:08;5.73;;;2.13;;
8213;SDS011;4148;47.974;7.824;2024-03-23T08:31:35;2.77;;;1.20;;
8213;SDS011;4148;47.974;7.824;2024-03-23T08:34:01;4.97;;;1.47;;
8213;SDS011;4148;47.974;7.824;2024-03-23T08:36:28;2.00;;;1.20;;
8213;SDS011;4148;47.974;7.824;2024-03-23T08:38:56;2.53;;;1.30;;
8213;SDS011;4148;47.974;7.824;2024-03-23T08:41:24;5.10;;;1.90;;
8213;SDS011;4148;47.974;7.824;2024-03-23T08:43:50;3.60;;;1.73;;
8213;SDS011;4148;47.974;7.824;2024-03-23T08:46:17;5.70;;;1.93;;
8213;SDS011;4148;47.974;7.824;2024-03-23T08:48:44;6.87;;;2.50;;
8213;SDS011;4148;47.974;7.824;2024-03-23T08:51:14;5.80;;;2.47;;
8213;SDS011;4148;47.974;7.824;2024-03-23T08:53:42;4.43;;;2.30;;
8213;SDS011;4148;47.974;7.824;2024-03-23T08:56:09;3.43;;;2.07;;
8213;SDS011;4148;47.974;7.824;2024-03-23T08:58:38;4.20;;;2.43;;
8213;SDS011;4148;47.974;7.824;2024-03-23T09:01:05;3.70;;;2.60;;
8213;SDS011;4148;47.974;7.824;2024-03-23T09:03:33;6.70;;;2.60;;
8213;SDS011;4148;47.974;7.824;2024-03-23T09:06:00;4.43;;;2.30;;
8213;SDS011;4148;47.974;7.824;2024-03-23T09:08:27;4.70;;;2.30;;
8213;SDS011;4148;47.974;7.824;2024-03-23T09:10:53;5.77;;;2.73;;
8213;SDS011;4148;47.974;7.824;2024-03-23T09:13:20;5.53;;;2.83;;
8213;SDS011;4148;47.974;7.824;2024-03-23T09:15:48;4.37;;;2.40;;
8213;SDS011;4148;47.974;7.824;2024-03-23T09:18:16;5.23;;;3.00;;
8213;SDS011;4148;47.974;7.824;2024-03-23T09:20:44;8.20;;;3.17;;
8213;SDS011;4148;47.974;7.824;2024-03-23T09:23:10;5.73;;;2.47;;
8213;SDS011;4148;47.974;7.824;2024-03-23T09:25:37;6.13;;;2.57;;
8213;SDS011;4148;47.974;7.824;2024-03-23T09:28:03;7.73;;;2.60;;
8213;SDS011;4148;47.974;7.824;2024-03-23T09:30:32;3.63;;;2.07;;
8213;SDS011;4148;47.974;7.824;2024-03-23T09:32:59;4.90;;;1.80;;
8213;SDS011;4148;47.974;7.824;2024-03-23T09:35:27;4.93;;;2.20;;
8213;SDS011;4148;47.974;7.824;2024-03-23T09:37:53;4.07;;;1.80;;
8213;SDS011;4148;47.974;7.824;2024-03-23T09:40:20;5.50;;;1.90;;
8213;SDS011;4148;47.974;7.824;2024-03-23T09:42:49;2.90;;;1.60;;
8213;SDS011;4148;47.974;7.824;2024-03-23T09:45:18;4.60;;;2.00;;
8213;SDS011;4148;47.974;7.824;2024-03-23T09:47:46;6.37;;;2.20;;
8213;SDS011;4148;47.974;7.824;2024-03-23T09:50:16;3.17;;;1.47;;
8213;SDS011;4148;47.974;7.824;2024-03-23T09:52:42;4.60;;;1.60;;
8213;SDS011;4148;47.974;7.824;2024-03-23T09:55:09;9.60;;;2.23;;
8213;SDS011;4148;47.974;7.824;2024-03-23T09:57:35;7.23;;;2.33;;
8213;SDS011;4148;47.974;7.824;2024-03-23T10:00:02;4.77;;;3.10;;
8213;SDS011;4148;47.974;7.824;2024-03-23T10:02:29;5.93;;;3.20;;
8213;SDS011;4148;47.974;7.824;2024-03-23T10:04:56;6.67;;;2.70;;
8213;SDS011;4148;47.974;7.824;2024-03-23T10:07:25;4.90;;;2.33;;
8213;SDS011;4148;47.974;7.824;2024-03-23T10:09:53;4.23;;;1.87;;
8213;SDS011;4148;47.974;7.824;2024-03-23T10:12:19;4.20;;;2.33;;
8213;SDS011;4148;47.974;7.824;2024-03-23T10:14:47;4.17;;;2.30;;
8213;SDS011;4148;47.974;7.824;2024-03-23T10:17:14;3.60;;;2.53;;
8213;SDS011;4148;47.974;7.824;2024-03-23T10:19:43;3.90;;;1.80;;
8213;SDS011;4148;47.974;7.824;2024-03-23T10:22:10;5.57;;;2.07;;
8213;SDS011;4148;47.974;7.824;2024-03-23T10:24:39;8.97;;;2.00;;
8213;SDS011;4148;47.974;7.824;2024-03-23T10:27:05;6.60;;;2.10;;
8213;SDS011;4148;47.974;7.824;2024-03-23T10:29:33;4.40;;;1.83;;
8213;SDS011;4148;47.974;7.824;2024-03-23T10:32:09;7.20;;;1.83;;
8213;SDS011;4148;47.974;7.824;2024-03-23T10:34:36;4.50;;;2.00;;
8213;SDS011;4148;47.974;7.824;2024-03-23T10:37:03;6.87;;;2.90;;
8213;SDS011;4148;47.974;7.824;2024-03-23T10:39:31;5.00;;;2.23;;
8213;SDS011;4148;47.974;7.824;2024-03-23T10:42:01;3.27;;;1.60;;
8213;SDS011;4148;47.974;7.824;2024-03-23T10:44:28;4.10;;;1.80;;
8213;SDS011;4148;47.974;7.824;2024-03-23T10:46:56;3.20;;;1.40;;
8213;SDS011;4148;47.974;7.824;2024-03-23T10:49:25;2.77;;;1.30;;
8213;SDS011;4148;47.974;7.824;2024-03-23T10:51:55;2.43;;;1.53;;
8213;SDS011;4148;47.974;7.824;2024-03-23T10:54:22;3.20;;;1.60;;
8213;SDS011;4148;47.974;7.824;2024-03-23T10:56:51;4.60;;;1.67;;
8213;SDS011;4148;47.974;7.824;2024-03-23T10:59:23;3.07;;;1.77;;
8213;SDS011;4148;47.974;7.824;2024-03-23T11:01:54;1.90;;;1.20;;
8213;SDS011;4148;47.974;7.824;2024-03-23T11:04:31;3.07;;;1.67;;
8213;SDS011;4148;47.974;7.824;2024-03-23T11:06:59;3.90;;;1.40;;
8213;SDS011;4148;47.974;7.824;2024-03-23T11:09:38;3.93;;;1.43;;
8213;SDS011;4148;47.974;7.824;2024-03-23T11:12:15;3.60;;;1.53;;
8213;SDS011;4148;47.974;7.824;2024-03-23T11:14:53;4.33;;;2.00;;
8213;SDS011;4148;47.974;7.824;2024-03-23T11:17:22;2.40;;;1.40;;
8213;SDS011;4148;47.974;7.824;2024-03-23T11:19:53;8.50;;;1.67;;
8213;SDS011;4148;47.974;7.824;2024-03-23T11:25:15;5.30;;;1.90;;
8213;SDS011;4148;47.974;7.824;2024-03-23T11:27:43;2.90;;;1.80;;
8213;SDS011;4148;47.974;7.824;2024-03-23T11:30:15;6.40;;;1.77;;
8213;SDS011;4148;47.974;7.824;2024-03-23T11:32:43;4.30;;;1.63;;
8213;SDS011;4148;47.974;7.824;2024-03-23T11:35:10;3.10;;;1.80;;
8213;SDS011;4148;47.974;7.824;2024-03-23T11:38:00;3.20;;;1.30;;
8213;SDS011;4148;47.974;7.824;2024-03-23T11:40:28;2.43;;;1.20;;
8213;SDS011;4148;47.974;7.824;2024-03-23T11:42:55;2.67;;;1.20;;
8213;SDS011;4148;47.974;7.824;2024-03-23T11:45:24;2.77;;;1.20;;
8213;SDS011;4148;47.974;7.824;2024-03-23T11:48:01;2.77;;;1.53;;
8213;SDS011;4148;47.974;7.824;2024-03-23T11:50:29;2.07;;;1.50;;
8213;SDS011;4148;47.974;7.824;2024-03-23T11:53:05;2.13;;;1.47;;
8213;SDS011;4148;47.974;7.824;2024-03-23T11:55:41;1.90;;;1.33;;
8213;SDS011;4148;47.974;7.824;2024-03-23T11:58:08;2.03;;;1.20;;
8213;SDS011;4148;47.974;7.824;2024-03-23T12:00:36;2.40;;;1.40;;
8213;SDS011;4148;47.974;7.824;2024-03-23T12:03:02;2.07;;;1.37;;
8213;SDS011;4148;47.974;7.824;2024-03-23T12:05:30;2.00;;;1.10;;
8213;SDS011;4148;47.974;7.824;2024-03-23T12:10:47;4.27;;;1.43;;
8213;SDS011;4148;47.974;7.824;2024-03-23T12:13:17;3.50;;;1.40;;
8213;SDS011;4148;47.974;7.824;2024-03-23T12:15:47;4.63;;;1.27;;
8213;SDS011;4148;47.974;7.824;2024-03-23T12:18:15;4.43;;;2.13;;
8213;SDS011;4148;47.974;7.824;2024-03-23T12:20:42;3.57;;;1.77;;
8213;SDS011;4148;47.974;7.824;2024-03-23T12:23:08;2.97;;;1.67;;
8213;SDS011;4148;47.974;7.824;2024-03-23T12:25:37;6.33;;;2.47;;
8213;SDS011;4148;47.974;7.824;2024-03-23T12:28:03;3.50;;;1.53;;
8213;SDS011;4148;47.974;7.824;2024-03-23T12:30:35;2.43;;;1.30;;
8213;SDS011;4148;47.974;7.824;2024-03-23T12:33:06;7.73;;;1.83;;
8213;SDS011;4148;47.974;7.824;2024-03-23T12:35:33;5.10;;;2.23;;
8213;SDS011;4148;47.974;7.824;2024-03-23T12:37:59;2.83;;;1.50;;
8213;SDS011;4148;47.974;7.824;2024-03-23T12:40:27;3.13;;;1.80;;
8213;SDS011;4148;47.974;7.824;2024-03-23T12:42:53;3.57;;;1.80;;
8213;SDS011;4148;47.974;7.824;2024-03-23T12:45:21;5.40;;;1.63;;
8213;SDS011;4148;47.974;7.824;2024-03-23T12:47:47;5.13;;;2.07;;
8213;SDS011;4148;47.974;7.824;2024-03-23T12:50:16;4.47;;;1.77;;
8213;SDS011;4148;47.974;7.824;2024-03-23T12:52:42;6.10;;;2.20;;
8213;SDS011;4148;47.974;7.824;2024-03-23T12:55:09;8.33;;;2.20;;
8213;SDS011;4148;47.974;7.824;2024-03-23T12:57:35;4.53;;;1.80;;
8213;SDS011;4148;47.974;7.824;2024-03-23T13:00:02;10.83;;;2.20;;
8213;SDS011;4148;47.974;7.824;2024-03-23T13:02:29;7.07;;;2.13;;
8213;SDS011;4148;47.974;7.824;2024-03-23T13:04:56;4.63;;;2.27;;
8213;SDS011;4148;47.974;7.824;2024-03-23T13:07:24;9.13;;;2.40;;
8213;SDS011;4148;47.974;7.824;2024-03-23T13:09:52;5.63;;;1.80;;
8213;SDS011;4148;47.974;7.824;2024-03-23T13:12:18;5.17;;;2.20;;
8213;SDS011;4148;47.974;7.824;2024-03-23T13:14:45;4.87;;;1.93;;
8213;SDS011;4148;47.974;7.824;2024-03-23T13:17:12;6.23;;;2.30;;
8213;SDS011;4148;47.974;7.824;2024-03-23T13:19:39;4.33;;;2.00;;
8213;SDS011;4148;47.974;7.824;2024-03-23T13:22:05;7.07;;;2.03;;
8213;SDS011;4148;47.974;7.824;2024-03-23T13:24:33;5.50;;;2.00;;
8213;SDS011;4148;47.974;7.824;2024-03-23T13:26:59;6.63;;;1.90;;
8213;SDS011;4148;47.974;7.824;2024-03-23T13:29:26;5.07;;;2.20;;
8213;SDS011;4148;47.974;7.824;2024-03-23T13:31:52;3.00;;;1.83;;
8213;SDS011;4148;47.974;7.824;2024-03-23T13:34:19;6.93;;;2.00;;
8213;SDS011;4148;47.974;7.824;2024-03-23T13:36:45;4.63;;;1.73;;
8213;SDS011;4148;47.974;7.824;2024-03-23T13:39:13;4.23;;;1.80;;
8213;SDS011;4148;47.974;7.824;2024-03-23T13:41:42;4.33;;;1.70;;
8213;SDS011;4148;47.974;7.824;2024-03-23T13:44:10;4.93;;;1.50;;
8213;SDS011;4148;47.974;7.824;2024-03-23T13:46:37;6.20;;;1.57;;
8213;SDS011;4148;47.974;7.824;2024-03-23T13:49:04;4.00;;;1.50;;
8213;SDS011;4148;47.974;7.824;2024-03-23T13:51:30;4.50;;;2.20;;
8213;SDS011;4148;47.974;7.824;2024-03-23T13:53:57;3.20;;;1.30;;
8213;SDS011;4148;47.974;7.824;2024-03-23T13:56:26;3.60;;;1.20;;
8213;SDS011;4148;47.974;7.824;2024-03-23T13:58:56;4.23;;;1.07;;
8213;SDS011;4148;47.974;7.824;2024-03-23T14:01:22;2.17;;;1.20;;
8213;SDS011;4148;47.974;7.824;2024-03-23T14:03:49;3.50;;;1.70;;
8213;SDS011;4148;47.974;7.824;2024-03-23T14:06:15;3.60;;;1.10;;
8213;SDS011;4148;47.974;7.824;2024-03-23T14:08:42;2.20;;;1.33;;
8213;SDS011;4148;47.974;7.824;2024-03-23T14:11:08;2.90;;;1.63;;
8213;SDS011;4148;47.974;7.824;2024-03-23T14:13:36;4.73;;;1.30;;
8213;SDS011;4148;47.974;7.824;2024-03-23T14:16:03;6.17;;;1.97;;
8213;SDS011;4148;47.974;7.824;2024-03-23T14:18:31;2.50;;;1.33;;
8213;SDS011;4148;47.974;7.824;2024-03-23T14:20:57;5.23;;;1.90;;
8213;SDS011;4148;47.974;7.824;2024-03-23T14:23:26;4.20;;;1.30;;
8213;SDS011;4148;47.974;7.824;2024-03-23T14:25:54;2.60;;;1.33;;
8213;SDS011;4148;47.974;7.824;2024-03-23T14:28:20;3.10;;;1.40;;
8213;SDS011;4148;47.974;7.824;2024-03-23T14:30:48;3.50;;;1.40;;
8213;SDS011;4148;47.974;7.824;2024-03-23T14:33:16;3.40;;;1.50;;
8213;SDS011;4148;47.974;7.824;2024-03-23T14:35:43;4.60;;;1.40;;
8213;SDS011;4148;47.974;7.824;2024-03-23T14:38:17;4.03;;;1.50;;
8213;SDS011;4148;47.974;7.824;2024-03-23T14:40:44;5.20;;;1.50;;
8213;SDS011;4148;47.974;7.824;2024-03-23T14:43:10;3.60;;;1.47;;
8213;SDS011;4148;47.974;7.824;2024-03-23T14:45:37;3.07;;;1.37;;
8213;SDS011;4148;47.974;7.824;2024-03-23T14:48:03;3.00;;;1.47;;
8213;SDS011;4148;47.974;7.824;2024-03-23T14:50:31;1.40;;;0.70;;
8213;SDS011;4148;47.974;7.824;2024-03-23T14:52:59;5.70;;;1.17;;
8213;SDS011;4148;47.974;7.824;2024-03-23T14:55:26;3.00;;;1.10;;
8213;SDS011;4148;47.974;7.824;2024-03-23T14:57:53;1.77;;;0.70;;
8213;SDS011;4148;47.974;7.824;2024-03-23T15:00:20;2.63;;;0.90;;
8213;SDS011;4148;47.974;7.824;2024-03-23T15:02:47;3.00;;;1.20;;
8213;SDS011;4148;47.974;7.824;2024-03-23T15:05:14;3.00;;;0.90;;
8213;SDS011;4148;47.974;7.824;2024-03-23T15:07:42;3.53;;;1.00;;
8213;SDS011;4148;47.974;7.824;2024-03-23T15:10:09;2.27;;;0.97;;
8213;SDS011;4148;47.974;7.824;2024-03-23T15:12:35;2.10;;;1.07;;
8213;SDS011;4148;47.974;7.824;2024-03-23T15:15:02;3.30;;;1.00;;
8213;SDS011;4148;47.974;7.824;2024-03-23T15:17:29;2.17;;;1.10;;
8213;SDS011;4148;47.974;7.824;2024-03-23T15:19:59;2.43;;;1.10;;
8213;SDS011;4148;47.974;7.824;2024-03-23T15:22:25;2.07;;;1.10;;
8213;SDS011;4148;47.974;7.824;2024-03-23T15:24:54;2.50;;;0.90;;
8213;SDS011;4148;47.974;7.824;2024-03-23T15:27:19;5.07;;;1.17;;
8213;SDS011;4148;47.974;7.824;2024-03-23T15:29:46;3.10;;;1.23;;
8213;SDS011;4148;47.974;7.824;2024-03-23T15:32:12;2.70;;;1.20;;
8213;SDS011;4148;47.974;7.824;2024-03-23T15:34:42;5.20;;;1.10;;
8213;SDS011;4148;47.974;7.824;2024-03-23T15:37:08;3.70;;;1.50;;
8213;SDS011;4148;47.974;7.824;2024-03-23T15:39:35;3.10;;;1.10;;
8213;SDS011;4148;47.974;7.824;2024-03-23T15:42:03;2.30;;;1.00;;
8213;SDS011;4148;47.974;7.824;2024-03-23T15:44:30;2.73;;;1.20;;
8213;SDS011;4148;47.974;7.824;2024-03-23T15:46:56;2.60;;;1.10;;
8213;SDS011;4148;47.974;7.824;2024-03-23T15:49:23;4.23;;;0.90;;
8213;SDS011;4148;47.974;7.824;2024-03-23T15:51:49;4.40;;;0.80;;
8213;SDS011;4148;47.974;7.824;2024-03-23T15:54:16;1.80;;;1.07;;
8213;SDS011;4148;47.974;7.824;2024-03-23T15:56:42;3.20;;;0.90;;
8213;SDS011;4148;47.974;7.824;2024-03-23T15:59:10;2.70;;;1.00;;
8213;SDS011;4148;47.974;7.824;2024-03-23T16:01:36;2.37;;;1.00;;
8213;SDS011;4148;47.974;7.824;2024-03-23T16:04:04;7.63;;;1.40;;
8213;SDS011;4148;47.974;7.824;2024-03-23T16:06:30;2.47;;;0.90;;
8213;SDS011;4148;47.974;7.824;2024-03-23T16:08:57;2.50;;;1.00;;
8213;SDS011;4148;47.974;7.824;2024-03-23T16:11:23;2.73;;;0.83;;
8213;SDS011;4148;47.974;7.824;2024-03-23T16:13:50;1.60;;;0.80;;
8213;SDS011;4148;47.974;7.824;2024-03-23T16:16:17;2.13;;;0.80;;